Tuttle, Oklahoma
Current Conditions -  °F | °C
As of 6:55 PM on Saturday 25 Oct 2014 (Local Time) from KRCE Reporting Station
Clear Clear  
Wind Chill: 24°   Ceiling: Unl
Heat Index: 24°   Visibility: NA
Dew Point: 14°   Wind: 9mph
Humidity: 53%   Direction: 170°S
Pressure: 30.03"   Gusts: NA
Location:  35.29°N, 97.81°W
Report Text: KRCE 252355Z AUTO 17008KT CLR 24/14 A3003 RMK AO2
Loading
Personal Weather Stations






























Interactive Weather Map
Tropical Storm Tracking
New forecast layout! Learn more

10-Day Weather Forecast

Advertisements
Track Severe Weather on mobile